createdAt,value
2019-03-15T00:01:49.817Z,15.10
2019-03-15T00:04:18.929Z,15.67
2019-03-15T00:06:50.600Z,14.17
2019-03-15T00:09:19.780Z,12.63
2019-03-15T00:11:48.850Z,18.00
2019-03-15T00:14:17.936Z,14.23
2019-03-15T00:16:47.038Z,19.40
2019-03-15T00:19:16.136Z,10.93
2019-03-15T00:21:45.246Z,12.37
2019-03-15T00:24:14.353Z,8.93
2019-03-15T00:26:43.427Z,14.00
2019-03-15T00:29:12.541Z,15.87
2019-03-15T00:31:41.669Z,13.70
2019-03-15T00:34:10.767Z,18.37
2019-03-15T00:36:39.901Z,11.37
2019-03-15T00:39:08.986Z,14.57
2019-03-15T00:41:38.082Z,17.93
2019-03-15T00:44:07.207Z,21.83
2019-03-15T00:46:36.271Z,18.67
2019-03-15T00:49:05.361Z,15.53
2019-03-15T00:51:34.428Z,19.37
2019-03-15T00:54:03.524Z,17.23
2019-03-15T00:56:32.636Z,18.97
2019-03-15T00:59:01.814Z,23.80
2019-03-15T01:01:30.865Z,22.73
2019-03-15T01:03:59.935Z,18.57
2019-03-15T01:06:29.017Z,24.27
2019-03-15T01:08:58.098Z,17.00
2019-03-15T01:11:27.190Z,18.43
2019-03-15T01:13:56.299Z,18.53
2019-03-15T01:16:25.403Z,20.00
2019-03-15T01:18:54.511Z,17.40
2019-03-15T01:21:23.585Z,18.70
2019-03-15T01:23:52.645Z,17.17
2019-03-15T01:26:21.724Z,17.80
2019-03-15T01:28:50.820Z,20.80
2019-03-15T01:31:20.108Z,18.37
2019-03-15T01:33:49.334Z,27.67
2019-03-15T01:36:18.443Z,17.90
2019-03-15T01:38:47.543Z,21.47
2019-03-15T01:41:16.739Z,18.60
2019-03-15T01:43:45.864Z,30.23
2019-03-15T01:46:14.943Z,20.33
2019-03-15T01:48:44.068Z,23.53
2019-03-15T01:51:13.180Z,26.43
2019-03-15T01:53:42.266Z,17.43
2019-03-15T01:56:11.363Z,19.03
2019-03-15T01:58:40.451Z,19.30
2019-03-15T02:01:09.557Z,24.10
2019-03-15T02:03:39.586Z,21.77
2019-03-15T02:06:08.821Z,19.23
2019-03-15T02:08:37.924Z,22.67
2019-03-15T02:11:07.508Z,20.93
2019-03-15T02:13:36.613Z,20.80
2019-03-15T02:16:05.702Z,25.50
2019-03-15T02:18:34.803Z,18.87
2019-03-15T02:21:03.893Z,20.03
2019-03-15T02:23:32.992Z,26.77
2019-03-15T02:26:02.080Z,20.60
2019-03-15T02:28:31.212Z,32.57
2019-03-15T02:31:00.322Z,25.77
2019-03-15T02:33:29.436Z,16.93
2019-03-15T02:35:58.567Z,20.70
2019-03-15T02:38:27.673Z,30.20
2019-03-15T02:40:56.761Z,24.93
2019-03-15T02:43:25.876Z,23.70
2019-03-15T02:45:55.061Z,22.43
2019-03-15T02:48:24.306Z,17.90
2019-03-15T02:50:53.421Z,24.60
2019-03-15T02:53:22.530Z,19.20
2019-03-15T02:55:51.607Z,22.40
2019-03-15T02:58:20.691Z,28.07
2019-03-15T03:00:49.813Z,19.33
2019-03-15T03:03:18.973Z,21.10
2019-03-15T03:05:48.095Z,21.37
2019-03-15T03:08:17.187Z,15.50
2019-03-15T03:10:46.269Z,26.50
2019-03-15T03:13:15.365Z,19.53
2019-03-15T03:15:44.468Z,21.03
2019-03-15T03:18:13.603Z,23.43
2019-03-15T03:20:42.734Z,22.73
2019-03-15T03:23:11.840Z,19.97
2019-03-15T03:25:40.874Z,30.13
2019-03-15T03:28:10.000Z,23.40
2019-03-15T03:30:39.110Z,17.13
2019-03-15T03:33:08.290Z,25.57
2019-03-15T03:35:37.405Z,24.40
2019-03-15T03:38:06.509Z,20.10
2019-03-15T03:40:35.579Z,23.23
2019-03-15T03:43:04.665Z,25.50
2019-03-15T03:45:33.764Z,20.83
2019-03-15T03:48:02.870Z,21.30
2019-03-15T03:50:31.966Z,20.00
2019-03-15T03:53:01.051Z,21.67
2019-03-15T03:55:30.155Z,23.03
2019-03-15T03:57:59.814Z,18.77
2019-03-15T04:00:29.103Z,21.77
2019-03-15T04:02:58.212Z,19.60
2019-03-15T04:05:27.296Z,17.70
2019-03-15T04:07:56.379Z,23.90
2019-03-15T04:10:25.501Z,20.67
2019-03-15T04:12:54.598Z,23.30
2019-03-15T04:15:23.713Z,24.73
2019-03-15T04:17:52.803Z,23.83
2019-03-15T04:20:21.899Z,18.10
2019-03-15T04:22:50.991Z,20.33
2019-03-15T04:25:20.140Z,18.43
2019-03-15T04:27:49.225Z,27.20
2019-03-15T04:30:18.342Z,24.93
2019-03-15T04:32:47.515Z,25.23
2019-03-15T04:35:16.615Z,24.17
2019-03-15T04:37:45.700Z,23.50
2019-03-15T04:40:16.109Z,17.93
2019-03-15T04:42:45.253Z,27.17
2019-03-15T04:45:14.344Z,24.30
2019-03-15T04:47:43.827Z,28.17
2019-03-15T04:50:13.048Z,18.93
2019-03-15T04:52:42.188Z,24.63
2019-03-15T04:55:11.356Z,25.30
2019-03-15T04:57:40.658Z,24.13
2019-03-15T05:00:11.845Z,21.43
2019-03-15T05:02:40.971Z,31.93
2019-03-15T05:05:10.068Z,19.97
2019-03-15T05:07:39.229Z,21.20
2019-03-15T05:10:08.625Z,19.60
2019-03-15T05:12:37.765Z,26.27
2019-03-15T05:15:07.121Z,24.60
2019-03-15T05:17:36.204Z,28.53
2019-03-15T05:20:06.171Z,20.63
2019-03-15T05:22:35.220Z,26.53
2019-03-15T05:25:04.669Z,26.93
2019-03-15T05:27:33.740Z,20.33
2019-03-15T05:30:02.844Z,21.10
2019-03-15T05:32:31.945Z,17.93
2019-03-15T05:35:01.035Z,14.70
2019-03-15T05:37:30.155Z,15.60
2019-03-15T05:39:59.248Z,19.57
2019-03-15T05:42:28.326Z,16.60
2019-03-15T05:44:57.419Z,16.87
2019-03-15T05:47:26.475Z,16.73
2019-03-15T05:49:55.571Z,17.20
2019-03-15T05:52:24.677Z,19.50
2019-03-15T05:54:53.777Z,15.20
2019-03-15T05:57:22.856Z,16.67
2019-03-15T05:59:51.941Z,17.80
2019-03-15T06:02:21.014Z,19.80
2019-03-15T06:04:50.115Z,15.60
2019-03-15T06:07:19.258Z,16.23
2019-03-15T06:09:48.321Z,12.13
2019-03-15T06:12:17.401Z,12.67
2019-03-15T06:14:47.002Z,15.70
2019-03-15T06:17:16.255Z,10.53
2019-03-15T06:19:45.387Z,10.73
2019-03-15T06:22:14.452Z,16.37
2019-03-15T06:24:43.568Z,14.80
2019-03-15T06:27:12.647Z,12.60
2019-03-15T06:29:41.745Z,13.07
2019-03-15T06:32:10.845Z,17.70
2019-03-15T06:34:39.928Z,15.03
2019-03-15T06:37:09.023Z,10.77
2019-03-15T06:39:38.112Z,9.27
2019-03-15T06:42:07.243Z,10.50
2019-03-15T06:44:37.709Z,9.13
2019-03-15T06:47:06.983Z,8.20
2019-03-15T06:49:36.100Z,9.40
2019-03-15T06:52:05.169Z,8.13
2019-03-15T06:54:34.282Z,10.00
2019-03-15T06:57:03.367Z,10.47
2019-03-15T06:59:32.478Z,11.33
2019-03-15T07:02:01.549Z,9.13
2019-03-15T07:04:30.631Z,9.20
2019-03-15T07:06:59.718Z,8.23
2019-03-15T07:09:30.843Z,8.27
2019-03-15T07:12:08.961Z,7.07
2019-03-15T07:14:30.443Z,9.17
2019-03-15T07:16:59.525Z,9.33
2019-03-15T07:19:30.542Z,7.17
2019-03-15T07:21:59.482Z,7.00
2019-03-15T07:24:28.759Z,6.13
2019-03-15T07:26:57.837Z,5.33
2019-03-15T07:29:26.936Z,5.60
2019-03-15T07:31:56.041Z,6.73
2019-03-15T07:34:25.112Z,9.30
2019-03-15T07:36:55.346Z,8.53
2019-03-15T07:39:26.592Z,6.70
2019-03-15T07:41:55.476Z,5.47
2019-03-15T07:44:24.549Z,5.33
2019-03-15T07:46:53.679Z,3.73
2019-03-15T07:49:23.125Z,3.83
2019-03-15T07:51:52.207Z,3.37
2019-03-15T07:54:21.293Z,5.17
2019-03-15T07:56:50.369Z,4.90
2019-03-15T07:59:19.448Z,2.00
2019-03-15T08:01:48.535Z,1.97
2019-03-15T08:04:17.823Z,1.90
2019-03-15T08:06:46.972Z,2.47
2019-03-15T08:09:16.063Z,2.33
2019-03-15T08:11:45.147Z,1.97
2019-03-15T08:14:14.235Z,2.13
2019-03-15T08:16:43.311Z,2.60
2019-03-15T08:19:12.435Z,2.10
2019-03-15T08:21:41.518Z,4.20
2019-03-15T08:24:10.615Z,1.70
2019-03-15T08:26:39.704Z,1.93
2019-03-15T08:29:09.904Z,2.27
2019-03-15T08:31:39.303Z,3.73
2019-03-15T08:34:08.450Z,2.50
2019-03-15T08:36:37.624Z,4.47
2019-03-15T08:39:07.344Z,6.17
2019-03-15T08:41:36.537Z,8.73
2019-03-15T08:44:05.667Z,4.03
2019-03-15T08:46:34.779Z,3.13
2019-03-15T08:49:03.849Z,3.67
2019-03-15T08:51:32.940Z,3.47
2019-03-15T08:54:02.105Z,3.97
2019-03-15T08:56:31.235Z,2.87
2019-03-15T08:59:00.353Z,2.43
2019-03-15T09:01:29.455Z,2.23
2019-03-15T09:03:58.611Z,1.40
2019-03-15T09:06:27.727Z,1.30
2019-03-15T09:08:56.809Z,1.37
2019-03-15T09:11:26.006Z,1.23
2019-03-15T09:13:55.165Z,1.40
2019-03-15T09:16:24.278Z,1.20
2019-03-15T09:18:55.445Z,1.60
2019-03-15T09:21:24.191Z,1.07
2019-03-15T09:23:53.324Z,1.10
2019-03-15T09:26:22.422Z,0.83
2019-03-15T09:28:51.524Z,0.97
2019-03-15T09:31:20.680Z,1.10
2019-03-15T09:33:49.795Z,1.17
2019-03-15T09:36:18.938Z,1.30
2019-03-15T09:38:48.075Z,0.90
2019-03-15T09:41:30.495Z,1.10
2019-03-15T09:43:48.004Z,1.27
2019-03-15T09:46:17.088Z,2.10
2019-03-15T09:48:46.215Z,1.20
2019-03-15T09:51:15.314Z,2.33
2019-03-15T09:53:44.433Z,0.87
2019-03-15T09:56:13.548Z,1.40
2019-03-15T09:58:42.630Z,1.27
2019-03-15T10:01:12.161Z,1.17
2019-03-15T10:03:41.734Z,1.40
2019-03-15T10:06:16.587Z,1.23
2019-03-15T10:08:41.594Z,1.30
2019-03-15T10:11:10.678Z,1.13
2019-03-15T10:13:39.764Z,2.60
2019-03-15T10:16:08.873Z,3.23
2019-03-15T10:18:38.022Z,1.50
2019-03-15T10:21:09.214Z,2.10
2019-03-15T10:23:38.026Z,1.80
2019-03-15T10:26:07.143Z,1.57
2019-03-15T10:28:36.259Z,2.00
2019-03-15T10:31:05.357Z,2.33
2019-03-15T10:33:34.508Z,1.87
2019-03-15T10:36:03.673Z,2.20
2019-03-15T10:38:32.834Z,6.20
2019-03-15T10:41:01.969Z,3.27
2019-03-15T10:43:31.176Z,2.33
2019-03-15T10:46:00.276Z,1.70
2019-03-15T10:48:29.376Z,2.13
2019-03-15T10:50:58.470Z,2.80
2019-03-15T10:53:27.575Z,1.80
2019-03-15T10:56:00.367Z,3.63
2019-03-15T10:58:27.488Z,1.90
2019-03-15T11:00:56.678Z,1.33
2019-03-15T11:03:25.762Z,1.30
2019-03-15T11:05:54.864Z,2.00
2019-03-15T11:08:24.375Z,1.80
2019-03-15T11:10:53.640Z,1.50
2019-03-15T11:13:22.740Z,1.83
2019-03-15T11:15:51.874Z,1.30
2019-03-15T11:18:20.959Z,2.73
2019-03-15T11:20:50.040Z,1.57
2019-03-15T11:23:19.146Z,1.87
2019-03-15T11:25:48.341Z,2.27
2019-03-15T11:28:17.423Z,1.53
2019-03-15T11:30:46.520Z,1.83
2019-03-15T11:33:15.594Z,2.07
2019-03-15T11:35:44.676Z,5.07
2019-03-15T11:38:13.754Z,2.77
2019-03-15T11:40:42.889Z,3.07
2019-03-15T11:43:11.989Z,2.20
2019-03-15T11:45:41.068Z,2.33
2019-03-15T11:48:10.196Z,3.37
2019-03-15T11:50:39.281Z,2.30
2019-03-15T11:53:08.388Z,4.77
2019-03-15T11:55:37.477Z,6.50
2019-03-15T11:58:06.573Z,4.93
2019-03-15T12:00:35.658Z,4.40
2019-03-15T12:03:04.739Z,2.73
2019-03-15T12:05:33.825Z,4.27
2019-03-15T12:08:02.921Z,3.27
2019-03-15T12:10:32.100Z,4.40
2019-03-15T12:13:01.224Z,3.03
2019-03-15T12:15:30.300Z,4.20
2019-03-15T12:17:59.407Z,3.50
2019-03-15T12:20:28.502Z,6.20
2019-03-15T12:22:57.583Z,2.83
2019-03-15T12:25:26.696Z,3.30
2019-03-15T12:27:55.787Z,3.43
2019-03-15T12:30:24.902Z,4.10
2019-03-15T12:32:54.055Z,3.87
2019-03-15T12:35:23.171Z,3.73
2019-03-15T12:37:52.283Z,3.03
2019-03-15T12:40:21.411Z,2.47
2019-03-15T12:42:50.496Z,2.87
2019-03-15T12:45:19.599Z,2.37
2019-03-15T12:47:48.699Z,4.30
2019-03-15T12:50:17.782Z,4.50
2019-03-15T12:52:48.206Z,4.20
2019-03-15T12:55:17.681Z,2.30
2019-03-15T12:57:49.219Z,1.83
2019-03-15T13:00:17.748Z,3.70
2019-03-15T13:02:46.915Z,2.07
2019-03-15T13:05:16.012Z,1.83
2019-03-15T13:07:45.110Z,2.60
2019-03-15T13:10:14.229Z,1.37
2019-03-15T13:12:43.319Z,2.80
2019-03-15T13:15:12.841Z,3.20
2019-03-15T13:17:41.986Z,2.10
2019-03-15T13:20:11.509Z,3.00
2019-03-15T13:22:40.642Z,2.10
2019-03-15T13:25:10.058Z,1.63
2019-03-15T13:27:39.139Z,2.30
2019-03-15T13:30:08.571Z,1.70
2019-03-15T13:32:37.723Z,2.00
2019-03-15T13:35:07.156Z,1.77
2019-03-15T13:37:36.268Z,2.20
2019-03-15T13:40:06.289Z,1.90
2019-03-15T13:42:35.469Z,1.60
2019-03-15T13:45:05.496Z,2.90
2019-03-15T13:47:34.631Z,2.33
2019-03-15T13:50:04.119Z,1.40
2019-03-15T13:52:33.257Z,1.70
2019-03-15T13:55:02.384Z,1.20
2019-03-15T13:57:31.543Z,5.07
2019-03-15T14:00:00.685Z,2.13
2019-03-15T14:02:29.807Z,1.83
2019-03-15T14:04:58.939Z,2.90
2019-03-15T14:07:28.027Z,2.60
2019-03-15T14:09:57.129Z,2.90
2019-03-15T14:12:26.304Z,3.70
2019-03-15T14:14:55.443Z,2.63
2019-03-15T14:17:24.567Z,2.20
2019-03-15T14:19:53.678Z,4.00
2019-03-15T14:22:22.803Z,3.83
2019-03-15T14:24:51.919Z,2.70
2019-03-15T14:27:32.542Z,2.30
2019-03-15T14:29:52.687Z,2.53
2019-03-15T14:32:21.791Z,5.17
2019-03-15T14:34:50.857Z,2.30
2019-03-15T14:37:20.223Z,3.60
2019-03-15T14:39:49.577Z,2.67
2019-03-15T14:42:18.814Z,2.33
2019-03-15T14:44:48.210Z,3.03
2019-03-15T14:47:17.341Z,3.00
2019-03-15T14:49:46.446Z,2.40
2019-03-15T14:52:15.631Z,3.10
2019-03-15T14:54:44.949Z,3.17
2019-03-15T14:57:14.050Z,2.77
2019-03-15T14:59:43.187Z,3.40
2019-03-15T15:02:12.340Z,4.17
2019-03-15T15:04:41.485Z,3.17
2019-03-15T15:07:10.636Z,4.27
2019-03-15T15:09:39.753Z,3.33
2019-03-15T15:12:08.852Z,4.77
2019-03-15T15:14:37.935Z,3.83
2019-03-15T15:17:07.103Z,4.13
2019-03-15T15:19:36.247Z,3.57
2019-03-15T15:22:05.410Z,2.90
2019-03-15T15:24:34.516Z,3.20
2019-03-15T15:27:03.630Z,4.77
2019-03-15T15:29:32.800Z,2.97
2019-03-15T15:32:01.993Z,3.37
2019-03-15T15:34:31.072Z,6.17
2019-03-15T15:37:00.190Z,2.93
2019-03-15T15:39:29.401Z,4.00
2019-03-15T15:41:58.794Z,3.10
2019-03-15T15:44:28.065Z,3.17
2019-03-15T15:46:57.167Z,4.73
2019-03-15T15:49:26.372Z,2.87
2019-03-15T15:51:55.641Z,2.83
2019-03-15T15:54:24.779Z,3.90
2019-03-15T15:56:53.868Z,3.37
2019-03-15T15:59:22.974Z,2.47
2019-03-15T16:01:52.085Z,3.37
2019-03-15T16:04:21.181Z,3.17
2019-03-15T16:06:50.281Z,3.37
2019-03-15T16:09:19.424Z,2.70
2019-03-15T16:11:48.578Z,3.10
2019-03-15T16:14:17.855Z,3.23
2019-03-15T16:16:47.058Z,2.97
2019-03-15T16:19:16.209Z,3.40
2019-03-15T16:21:45.347Z,2.77
2019-03-15T16:24:14.530Z,4.17
2019-03-15T16:26:43.696Z,2.90
2019-03-15T16:29:12.794Z,3.30
2019-03-15T16:31:41.872Z,4.37
2019-03-15T16:34:10.966Z,5.80
2019-03-15T16:36:40.081Z,3.07
2019-03-15T16:39:09.203Z,3.07
2019-03-15T16:41:38.303Z,2.80
2019-03-15T16:44:07.405Z,3.00
2019-03-15T16:46:36.499Z,3.27
2019-03-15T16:49:05.605Z,4.07
2019-03-15T16:51:34.954Z,50.63
2019-03-15T16:54:04.214Z,7.93
2019-03-15T16:56:33.348Z,11.10
2019-03-15T16:59:02.496Z,3.58
2019-03-15T17:01:31.592Z,3.50
2019-03-15T17:04:00.774Z,2.70
2019-03-15T17:06:29.939Z,2.63
2019-03-15T17:08:59.346Z,3.27
2019-03-15T17:11:29.177Z,3.47
2019-03-15T17:13:58.289Z,4.60
2019-03-15T17:16:27.394Z,4.17
2019-03-15T17:18:56.525Z,3.37
2019-03-15T17:21:25.626Z,3.57
2019-03-15T17:23:54.734Z,3.20
2019-03-15T17:26:23.842Z,2.73
2019-03-15T17:28:58.529Z,3.33
2019-03-15T17:31:23.781Z,4.40
2019-03-15T17:33:52.868Z,4.33
2019-03-15T17:36:22.001Z,3.97
2019-03-15T17:38:51.107Z,4.37
2019-03-15T17:41:20.316Z,3.67
2019-03-15T17:43:49.422Z,4.20
2019-03-15T17:46:18.503Z,4.50
2019-03-15T17:48:47.644Z,4.30
2019-03-15T17:51:16.746Z,4.53
2019-03-15T17:53:45.940Z,6.93
2019-03-15T17:56:15.102Z,4.83
2019-03-15T17:58:44.225Z,6.20
2019-03-15T18:01:13.358Z,6.97
2019-03-15T18:03:42.523Z,10.80
2019-03-15T18:06:11.769Z,140.23
2019-03-15T18:08:40.944Z,44.70
2019-03-15T18:11:10.088Z,6.70
2019-03-15T18:13:39.192Z,9.10
2019-03-15T18:16:08.274Z,4.87
2019-03-15T18:18:37.379Z,4.80
2019-03-15T18:21:06.517Z,4.57
2019-03-15T18:23:35.621Z,4.30
2019-03-15T18:26:04.812Z,4.70
2019-03-15T18:28:33.904Z,5.33
2019-03-15T18:31:02.993Z,6.07
2019-03-15T18:33:32.115Z,5.97
2019-03-15T18:36:01.214Z,6.10
2019-03-15T18:38:35.891Z,6.83
2019-03-15T18:41:04.978Z,6.80
2019-03-15T18:43:34.054Z,7.90
2019-03-15T18:46:03.194Z,8.60
2019-03-15T18:48:32.346Z,7.30
2019-03-15T18:51:01.420Z,8.67
2019-03-15T18:53:30.694Z,7.23
2019-03-15T18:55:59.771Z,6.83
2019-03-15T18:58:30.237Z,7.10
2019-03-15T19:00:59.421Z,5.37
2019-03-15T19:03:28.568Z,6.07
2019-03-15T19:05:57.648Z,6.57
2019-03-15T19:08:26.799Z,5.50
2019-03-15T19:10:55.966Z,4.80
2019-03-15T19:13:25.072Z,5.53
2019-03-15T19:15:54.169Z,5.70
2019-03-15T19:18:23.269Z,4.77
2019-03-15T19:20:52.515Z,5.60
2019-03-15T19:23:21.856Z,5.60
2019-03-15T19:25:50.964Z,9.27
2019-03-15T19:28:20.064Z,5.83
2019-03-15T19:30:49.469Z,7.53
2019-03-15T19:33:18.632Z,14.03
2019-03-15T19:35:47.746Z,29.30
2019-03-15T19:38:16.867Z,8.43
2019-03-15T19:40:46.034Z,6.80
2019-03-15T19:43:15.112Z,6.23
2019-03-15T19:45:44.248Z,6.47
2019-03-15T19:48:13.444Z,7.03
2019-03-15T19:50:42.640Z,6.90
2019-03-15T19:53:11.807Z,8.20
2019-03-15T19:55:40.897Z,8.10
2019-03-15T19:58:10.011Z,7.37
2019-03-15T20:00:39.135Z,7.23
2019-03-15T20:03:08.260Z,7.17
2019-03-15T20:05:37.352Z,6.83
2019-03-15T20:08:06.463Z,6.03
2019-03-15T20:10:35.551Z,5.63
2019-03-15T20:13:04.650Z,7.90
2019-03-15T20:15:33.745Z,7.80
2019-03-15T20:18:02.852Z,6.53
2019-03-15T20:20:31.989Z,7.40
2019-03-15T20:23:01.108Z,6.03
2019-03-15T20:25:30.280Z,5.83
2019-03-15T20:27:59.428Z,6.20
2019-03-15T20:30:28.639Z,5.30
2019-03-15T20:32:57.776Z,6.40
2019-03-15T20:35:26.892Z,5.93
2019-03-15T20:37:56.027Z,5.80
2019-03-15T20:40:25.146Z,5.83
2019-03-15T20:42:54.318Z,6.03
2019-03-15T20:45:23.600Z,5.57
2019-03-15T20:47:52.711Z,6.15
2019-03-15T20:50:21.820Z,6.07
2019-03-15T20:52:50.918Z,6.60
2019-03-15T20:55:20.040Z,7.67
2019-03-15T20:57:49.185Z,6.60
2019-03-15T21:00:18.327Z,8.50
2019-03-15T21:02:47.443Z,6.70
2019-03-15T21:05:16.554Z,9.47
2019-03-15T21:07:45.694Z,7.83
2019-03-15T21:10:14.814Z,7.37
2019-03-15T21:12:43.924Z,7.47
2019-03-15T21:15:13.058Z,8.07
2019-03-15T21:17:42.249Z,7.83
2019-03-15T21:20:12.025Z,9.63
2019-03-15T21:22:41.146Z,11.27
2019-03-15T21:25:10.412Z,7.83
2019-03-15T21:27:52.571Z,8.83
2019-03-15T21:30:12.875Z,8.07
2019-03-15T21:32:42.055Z,9.00
2019-03-15T21:35:11.211Z,9.40
2019-03-15T21:37:40.325Z,9.37
2019-03-15T21:40:10.324Z,8.60
2019-03-15T21:42:39.458Z,8.97
2019-03-15T21:45:09.212Z,10.10
2019-03-15T21:47:38.461Z,9.83
2019-03-15T21:50:09.132Z,8.87
2019-03-15T21:52:38.250Z,9.13
2019-03-15T21:55:07.402Z,12.07
2019-03-15T21:57:36.535Z,14.23
2019-03-15T22:00:06.287Z,12.17
2019-03-15T22:02:35.439Z,15.23
2019-03-15T22:05:04.595Z,15.77
2019-03-15T22:07:33.696Z,15.10
2019-03-15T22:10:02.835Z,15.27
2019-03-15T22:12:31.989Z,12.77
2019-03-15T22:15:01.129Z,15.00
2019-03-15T22:17:30.286Z,16.47
2019-03-15T22:19:59.444Z,18.40
2019-03-15T22:22:28.565Z,14.43
2019-03-15T22:24:57.680Z,13.33
2019-03-15T22:27:26.793Z,11.50
2019-03-15T22:29:55.925Z,17.70
2019-03-15T22:32:25.095Z,14.53
2019-03-15T22:34:54.209Z,18.67
2019-03-15T22:37:23.291Z,16.40
2019-03-15T22:39:52.420Z,16.23
2019-03-15T22:42:21.534Z,13.50
2019-03-15T22:44:50.900Z,16.03
2019-03-15T22:47:20.024Z,14.43
2019-03-15T22:49:49.104Z,14.57
2019-03-15T22:52:18.199Z,17.03
2019-03-15T22:54:47.307Z,16.43
2019-03-15T22:57:16.404Z,16.43
2019-03-15T22:59:45.509Z,13.13
2019-03-15T23:02:14.615Z,13.03
2019-03-15T23:04:43.705Z,15.83
2019-03-15T23:07:12.800Z,11.43
2019-03-15T23:09:41.913Z,15.30
2019-03-15T23:12:11.013Z,14.03
2019-03-15T23:14:40.145Z,16.10
2019-03-15T23:17:09.238Z,11.77
2019-03-15T23:19:38.337Z,17.57
2019-03-15T23:22:07.446Z,12.17
2019-03-15T23:24:36.583Z,13.83
2019-03-15T23:27:05.696Z,13.47
2019-03-15T23:29:34.786Z,15.93
2019-03-15T23:32:03.905Z,10.63
2019-03-15T23:34:33.079Z,14.53
2019-03-15T23:37:02.184Z,10.80
2019-03-15T23:39:31.285Z,15.03
2019-03-15T23:42:00.383Z,11.30
2019-03-15T23:44:29.513Z,15.37
2019-03-15T23:46:58.623Z,15.03
2019-03-15T23:49:27.923Z,16.83
2019-03-15T23:51:57.019Z,11.60
2019-03-15T23:54:26.189Z,13.87
2019-03-15T23:56:55.308Z,18.10
2019-03-15T23:59:24.397Z,13.53
